Terminal Aerodrome Forecast
Issued by NWS Cleveland, OH

Home | Current Version | Previous Version | Text Only | Print | Product List | Glossary Off
Versions: 1 2 3 4 5 6 7 8 9 10 11 12 13 14 15 16 17

000
FTUS41 KCLE 231900 AAB
TAFCAK
TAF AMD
KCAK 231956Z 2320/2418 35010KT P6SM BKN008 OVC015
      TEMPO 2320/2323 3SM -DZ BR BKN005 OVC010
     FM240000 34010KT P6SM OVC018
     FM240300 35008KT P6SM BKN025=

USA.gov is the U.S. government's official web portal to all federal, state and local government web resources and services.